Eagle Tampa — S6NK6 — position and weather

sailwx.info

Track history (hours):
 
Tides and Currents Weather Stations Pressure Air Temp Water Temp Dewpoint Dewpoint Depression Visibility Wind Speed Wind Dir Waves Ship Positions

Eagle Tampa

Last reported at 2016-Dec-08 23:33 UTC. Time now 2016-Dec-09 00:04 UTC.
Position N 29°36' W 094°57'.

Length 245 m; draft 8.8 m.

Type: Tanker. MMSI: 563936000.

Date/timePositionNaut miles runAvg speedWind from/ knotsBaromVisibWave heightAir tempDewpointWater temp
2016-Dec-08 23:33N 29°36' W 094°57'8 8.2
2016-Dec-08 22:33N 29°44' W 095°02'5 5.3
2016-Dec-08 21:33N 29°44' W 095°08'0 0.0
2016-Dec-08 20:28N 29°44' W 095°08'0 0.0
2016-Dec-08 19:28N 29°44' W 095°08'0 0.0
2016-Dec-08 18:28N 29°44' W 095°08'0 0.0
2016-Dec-08 17:22N 29°44' W 095°08'0 0.0
2016-Dec-08 16:28N 29°44' W 095°08'0 0.0
2016-Dec-07 22:28N 29°44' W 095°08'0 0.0
2016-Dec-07 21:28N 29°44' W 095°08'0 0.0
2016-Dec-07 18:28N 29°44' W 095°08'0 0.0
2016-Dec-07 16:28N 29°44' W 095°08'0 0.0
2016-Dec-07 15:34N 29°44' W 095°08'0 0.0
2016-Dec-06 23:04N 29°44' W 095°08'0 0.0
2016-Dec-06 22:22N 29°44' W 095°08'0 0.0
2016-Dec-06 21:28N 29°44' W 095°08'0 0.0
2016-Dec-06 20:22N 29°44' W 095°08'0 0.0
2016-Dec-06 18:16N 29°44' W 095°08'0 0.0
2016-Dec-06 15:28N 29°44' W 095°08'0 0.0
2016-Dec-06 14:22N 29°44' W 095°08'0 0.0
2016-Dec-05 22:04N 29°44' W 095°08'0 0.0
2016-Dec-05 21:28N 29°44' W 095°08'0 0.0
2016-Dec-05 20:28N 29°44' W 095°08'0 0.0
2016-Dec-05 19:28N 29°44' W 095°08'0 0.5
2016-Dec-05 18:33N 29°44' W 095°07'4 4.2
2016-Dec-05 17:34N 29°44' W 095°02'7 6.6
2016-Dec-05 16:33N 29°38' W 094°58'1010.0
2016-Dec-05 15:34N 29°30' W 094°52'  
2016-Nov-30 07:23N 29°07' W 094°34'  
Track history (hours):
 
Tides and Currents Weather Stations Pressure Air Temp Water Temp Dewpoint Dewpoint Depression Visibility Wind Speed Wind Dir Waves Ship Positions

Eagle Tampa

Last reported at 2016-Dec-08 23:33 UTC. Time now 2016-Dec-09 00:04 UTC.
Position N 29°36' W 094°57'.

Length 245 m; draft 8.8 m.

Type: Tanker. MMSI: 563936000.

Date/timePositionNaut miles runAvg speedWind from/ knotsBaromVisibWave heightAir tempDewpointWater temp
2016-Dec-08 23:33N 29°36' W 094°57'8 8.2
2016-Dec-08 22:33N 29°44' W 095°02'5 5.3
2016-Dec-08 21:33N 29°44' W 095°08'0 0.0
2016-Dec-08 20:28N 29°44' W 095°08'0 0.0
2016-Dec-08 19:28N 29°44' W 095°08'0 0.0
2016-Dec-08 18:28N 29°44' W 095°08'0 0.0
2016-Dec-08 17:22N 29°44' W 095°08'0 0.0
2016-Dec-08 16:28N 29°44' W 095°08'0 0.0
2016-Dec-07 22:28N 29°44' W 095°08'0 0.0
2016-Dec-07 21:28N 29°44' W 095°08'0 0.0
2016-Dec-07 18:28N 29°44' W 095°08'0 0.0
2016-Dec-07 16:28N 29°44' W 095°08'0 0.0
2016-Dec-07 15:34N 29°44' W 095°08'0 0.0
2016-Dec-06 23:04N 29°44' W 095°08'0 0.0
2016-Dec-06 22:22N 29°44' W 095°08'0 0.0
2016-Dec-06 21:28N 29°44' W 095°08'0 0.0
2016-Dec-06 20:22N 29°44' W 095°08'0 0.0
2016-Dec-06 18:16N 29°44' W 095°08'0 0.0
2016-Dec-06 15:28N 29°44' W 095°08'0 0.0
2016-Dec-06 14:22N 29°44' W 095°08'0 0.0
2016-Dec-05 22:04N 29°44' W 095°08'0 0.0
2016-Dec-05 21:28N 29°44' W 095°08'0 0.0
2016-Dec-05 20:28N 29°44' W 095°08'0 0.0
2016-Dec-05 19:28N 29°44' W 095°08'0 0.5
2016-Dec-05 18:33N 29°44' W 095°07'4 4.2
2016-Dec-05 17:34N 29°44' W 095°02'7 6.6
2016-Dec-05 16:33N 29°38' W 094°58'1010.0
2016-Dec-05 15:34N 29°30' W 094°52'  
2016-Nov-30 07:23N 29°07' W 094°34'  

Dump ship's entire track history